Time;durP1;ratioP1;P1;durP2;ratioP2;P2;SDS_P1;SDS_P2;PMS_P1;PMS_P2;Temp;Humidity;BMP_temperature;BMP_pressure;BME280_temperature;BME280_humidity;BME280_pressure;Samples;Min_cycle;Max_cycle;Signal;HPM_P1;HPM_P2
2023/06/08 00:00:05;;;;;;;23.33;9.38;;;;;;;17.03;100.00;101378.31;5011130;28;20060;-73
2023/06/08 00:02:32;;;;;;;26.02;9.45;;;;;;;16.97;100.00;101374.47;5010051;28;20139;-73
2023/06/08 00:05:02;;;;;;;23.70;9.93;;;;;;;16.93;100.00;101373.78;5029205;28;20049;-71
2023/06/08 00:07:30;;;;;;;18.67;8.38;;;;;;;16.89;100.00;101377.91;5012966;28;20813;-72
2023/06/08 00:09:59;;;;;;;21.17;8.30;;;;;;;16.84;100.00;101372.84;5014812;28;20049;-74
2023/06/08 00:12:27;;;;;;;21.75;8.77;;;;;;;16.78;100.00;101378.22;5012245;28;20092;-72
2023/06/08 00:14:54;;;;;;;16.13;8.07;;;;;;;16.73;100.00;101375.97;5018637;28;20806;-73
2023/06/08 00:17:21;;;;;;;24.50;8.75;;;;;;;16.73;100.00;101372.34;5013784;28;20050;-74
2023/06/08 00:19:47;;;;;;;23.45;8.48;;;;;;;16.73;100.00;101378.78;5012182;28;20468;-73
2023/06/08 00:22:14;;;;;;;20.85;8.27;;;;;;;16.73;100.00;101375.16;5019179;28;20065;-72
2023/06/08 00:24:40;;;;;;;22.88;8.85;;;;;;;16.68;100.00;101379.31;5008674;28;20060;-72
2023/06/08 00:27:08;;;;;;;26.95;8.55;;;;;;;16.70;100.00;101381.66;5007731;28;20082;-71
2023/06/08 00:29:35;;;;;;;23.98;8.85;;;;;;;16.65;100.00;101371.00;5005561;28;20432;-72
2023/06/08 00:32:01;;;;;;;22.02;8.32;;;;;;;16.66;100.00;101373.34;5011840;28;20054;-71
2023/06/08 00:34:28;;;;;;;18.70;7.38;;;;;;;16.59;100.00;101370.75;5016383;28;20081;-71
2023/06/08 00:36:55;;;;;;;18.95;8.02;;;;;;;16.56;100.00;101377.25;5006028;28;20042;-74
2023/06/08 00:39:22;;;;;;;25.83;8.77;;;;;;;16.49;100.00;101363.41;5009076;28;20057;-73
2023/06/08 00:41:48;;;;;;;24.10;8.88;;;;;;;16.50;100.00;101364.97;5016795;28;20080;-71
2023/06/08 00:44:15;;;;;;;23.58;8.27;;;;;;;16.46;100.00;101367.09;5016489;28;20484;-73
2023/06/08 00:46:42;;;;;;;20.58;8.57;;;;;;;16.41;100.00;101362.00;5016501;28;20088;-72
2023/06/08 00:49:13;;;;;;;21.98;9.02;;;;;;;16.42;100.00;101372.03;5019811;28;20519;-71
2023/06/08 00:51:41;;;;;;;25.73;9.45;;;;;;;16.37;100.00;101368.97;5006006;28;20119;-71
2023/06/08 00:54:12;;;;;;;24.23;9.00;;;;;;;16.31;100.00;101363.09;5001495;28;20053;-72
2023/06/08 00:56:40;;;;;;;20.13;8.50;;;;;;;16.31;100.00;101359.50;5006067;28;20046;-71
2023/06/08 00:59:09;;;;;;;21.60;8.65;;;;;;;16.23;100.00;101374.91;5015045;28;20045;-72
2023/06/08 01:01:38;;;;;;;20.70;9.55;;;;;;;16.20;100.00;101365.34;5021441;28;21028;-73
2023/06/08 01:04:08;;;;;;;22.88;9.68;;;;;;;16.14;100.00;101372.72;5005461;28;20053;-74
2023/06/08 01:06:37;;;;;;;26.23;9.25;;;;;;;16.07;100.00;101364.50;5011636;28;20049;-71
2023/06/08 01:09:19;;;;;;;22.25;8.02;;;;;;;16.12;100.00;101372.38;5016182;28;20742;-72
2023/06/08 01:12:00;;;;;;;22.55;8.55;;;;;;;16.11;100.00;101370.81;5000127;28;20050;-71
2023/06/08 01:15:09;;;;;;;25.83;9.13;;;;;;;16.03;100.00;101363.81;5007254;28;20073;-74
2023/06/08 01:17:47;;;;;;;17.13;8.52;;;;;;;16.02;100.00;101376.25;4993550;28;20072;-71
2023/06/08 01:20:32;;;;;;;19.98;8.48;;;;;;;16.00;100.00;101363.91;5004707;28;20054;-73
2023/06/08 01:23:25;;;;;;;23.50;9.18;;;;;;;15.99;100.00;101371.53;5002398;28;20053;-74
2023/06/08 01:25:56;;;;;;;27.40;9.73;;;;;;;15.98;100.00;101369.16;5001198;28;20076;-73
2023/06/08 01:28:23;;;;;;;21.63;8.10;;;;;;;15.93;100.00;101362.06;5007010;28;20050;-72
2023/06/08 01:30:50;;;;;;;18.00;7.28;;;;;;;15.93;100.00;101370.47;5014305;28;20504;-70
2023/06/08 01:33:21;;;;;;;23.52;8.10;;;;;;;15.91;100.00;101366.53;5005818;28;20081;-71
2023/06/08 01:36:08;;;;;;;26.05;8.00;;;;;;;15.87;100.00;101369.41;5005335;28;20093;-72
2023/06/08 01:38:56;;;;;;;20.35;8.45;;;;;;;15.85;100.00;101368.28;5006135;28;20064;-72
2023/06/08 01:41:37;;;;;;;23.30;9.15;;;;;;;15.77;100.00;101358.47;5009360;28;20103;-72
2023/06/08 01:44:06;;;;;;;21.27;8.00;;;;;;;15.77;100.00;101362.06;5001659;28;20705;-71
2023/06/08 01:46:33;;;;;;;21.73;8.93;;;;;;;15.74;100.00;101357.34;5014927;28;20520;-72
2023/06/08 01:49:03;;;;;;;20.33;8.65;;;;;;;15.67;100.00;101357.50;5011652;28;20096;-73
2023/06/08 01:51:31;;;;;;;22.90;8.32;;;;;;;15.69;100.00;101357.84;5017610;28;20052;-72
2023/06/08 01:54:01;;;;;;;19.90;8.38;;;;;;;15.64;100.00;101360.38;5008430;28;20957;-74
2023/06/08 01:56:31;;;;;;;24.13;8.65;;;;;;;15.58;100.00;101356.53;5005906;28;20124;-71
2023/06/08 01:58:58;;;;;;;19.00;8.55;;;;;;;15.53;100.00;101354.25;5004798;28;20085;-73
2023/06/08 02:01:25;;;;;;;23.98;7.97;;;;;;;15.50;100.00;101352.31;5002807;28;20133;-72
2023/06/08 02:03:52;;;;;;;23.40;8.63;;;;;;;15.44;100.00;101352.06;5006237;28;20530;-72
2023/06/08 02:06:18;;;;;;;21.23;8.75;;;;;;;15.39;100.00;101349.75;5010085;28;20508;-73
2023/06/08 02:08:45;;;;;;;23.80;8.40;;;;;;;15.36;100.00;101347.81;5020484;28;20045;-74
2023/06/08 02:11:12;;;;;;;22.73;8.85;;;;;;;15.33;100.00;101351.47;5024715;28;20635;-73
2023/06/08 02:13:43;;;;;;;22.02;8.32;;;;;;;15.26;100.00;101351.63;5012150;28;20084;-72
2023/06/08 02:16:10;;;;;;;25.05;8.55;;;;;;;15.24;100.00;101348.47;5003065;28;20065;-72
2023/06/08 02:18:41;;;;;;;20.23;8.43;;;;;;;15.21;100.00;101352.16;5017008;28;20080;-72
2023/06/08 02:21:09;;;;;;;23.58;9.30;;;;;;;15.16;100.00;101349.88;5013345;28;20053;-73
2023/06/08 02:23:37;;;;;;;25.38;9.50;;;;;;;15.08;100.00;101340.03;5017550;28;20133;-72
2023/06/08 02:26:05;;;;;;;24.20;8.30;;;;;;;15.06;100.00;101341.69;5016605;28;20077;-72
2023/06/08 02:28:32;;;;;;;21.00;7.80;;;;;;;15.00;100.00;101349.81;5011164;28;20053;-71
2023/06/08 02:31:00;;;;;;;23.27;8.93;;;;;;;14.96;100.00;101344.28;5016246;28;20729;-72
2023/06/08 02:33:27;;;;;;;22.55;9.13;;;;;;;14.93;100.00;101344.38;5010251;28;20514;-72
2023/06/08 02:35:54;;;;;;;24.15;9.57;;;;;;;14.88;100.00;101342.06;5009161;28;20070;-72
2023/06/08 02:38:20;;;;;;;22.05;8.77;;;;;;;14.88;100.00;101350.47;5019071;28;20053;-74
2023/06/08 02:40:47;;;;;;;21.30;8.25;;;;;;;14.85;100.00;101348.53;5008440;28;20050;-73
2023/06/08 02:43:15;;;;;;;23.42;10.50;;;;;;;14.79;100.00;101341.88;5010446;28;20074;-72
2023/06/08 02:45:42;;;;;;;23.98;9.45;;;;;;;14.78;100.00;101343.06;5008202;28;20045;-73
2023/06/08 02:48:08;;;;;;;19.65;8.80;;;;;;;14.71;100.00;101346.81;5018350;28;20133;-71
2023/06/08 02:50:35;;;;;;;19.70;8.88;;;;;;;14.72;100.00;101342.03;5020097;28;20065;-73
2023/06/08 02:53:02;;;;;;;21.95;8.70;;;;;;;14.66;100.00;101343.75;5008215;28;20093;-72
2023/06/08 02:55:34;;;;;;;23.83;9.82;;;;;;;14.62;100.00;101343.03;5009302;28;20041;-71
2023/06/08 02:58:03;;;;;;;21.92;8.73;;;;;;;14.59;100.00;101344.66;5008819;28;20057;-72
2023/06/08 03:00:30;;;;;;;19.48;8.48;;;;;;;14.57;100.00;101337.91;5005295;28;20049;-72
2023/06/08 03:03:00;;;;;;;24.98;9.90;;;;;;;14.54;100.00;101341.56;5007219;28;20057;-73
2023/06/08 03:05:28;;;;;;;21.05;9.63;;;;;;;14.47;100.00;101331.31;5001091;28;20463;-73
2023/06/08 03:07:58;;;;;;;25.70;11.35;;;;;;;14.47;100.00;101334.13;5010429;28;20050;-72
2023/06/08 03:10:26;;;;;;;22.15;9.30;;;;;;;14.47;100.00;101333.31;5002908;28;20045;-73
2023/06/08 03:12:52;;;;;;;21.92;9.27;;;;;;;14.41;100.00;101321.81;5008625;28;20140;-72
2023/06/08 03:15:22;;;;;;;31.67;10.23;;;;;;;14.40;100.00;101331.44;5013680;28;20084;-71
2023/06/08 03:17:51;;;;;;;23.45;10.38;;;;;;;14.38;100.00;101327.50;5013732;28;20045;-73
2023/06/08 03:20:18;;;;;;;20.77;9.02;;;;;;;14.39;100.00;101329.81;5014419;28;20050;-71
2023/06/08 03:22:46;;;;;;;23.77;9.93;;;;;;;14.33;100.00;101325.97;5009344;28;20137;-71
2023/06/08 03:25:16;;;;;;;26.80;9.32;;;;;;;14.34;100.00;101327.53;5009245;28;20057;-72
2023/06/08 03:27:43;;;;;;;25.73;9.63;;;;;;;14.32;100.00;101329.19;5015557;28;20068;-72
2023/06/08 03:30:11;;;;;;;21.17;9.73;;;;;;;14.32;100.00;101327.16;5009573;28;20152;-73
2023/06/08 03:32:41;;;;;;;26.75;10.52;;;;;;;14.28;100.00;101323.66;5006908;28;20046;-71
2023/06/08 03:35:09;;;;;;;21.98;9.43;;;;;;;14.20;100.00;101330.59;5011702;28;20053;-72
2023/06/08 03:37:36;;;;;;;22.10;9.55;;;;;;;14.20;100.00;101327.00;5020134;28;20053;-72
2023/06/08 03:40:03;;;;;;;23.92;11.02;;;;;;;14.16;100.00;101329.09;5023717;28;20607;-72
2023/06/08 03:42:30;;;;;;;23.27;9.95;;;;;;;14.15;100.00;101330.31;5007539;28;20141;-72
2023/06/08 03:44:57;;;;;;;26.70;9.35;;;;;;;14.10;100.00;101322.41;5010600;28;20081;-72
2023/06/08 03:47:23;;;;;;;23.42;10.30;;;;;;;14.12;100.00;101334.75;5009211;28;20478;-73
2023/06/08 03:49:50;;;;;;;23.10;9.43;;;;;;;14.08;100.00;101325.63;5024302;28;20424;-72
2023/06/08 03:52:17;;;;;;;23.15;9.68;;;;;;;14.05;100.00;101325.69;5010581;28;20054;-72
2023/06/08 03:54:44;;;;;;;22.30;10.18;;;;;;;14.06;100.00;101332.88;5007808;28;20584;-72
2023/06/08 03:57:11;;;;;;;26.60;10.15;;;;;;;14.02;100.00;101329.34;5010018;28;20049;-72
2023/06/08 03:59:38;;;;;;;26.83;11.38;;;;;;;14.00;100.00;101326.19;5019816;28;20133;-71
2023/06/08 04:02:04;;;;;;;22.17;10.05;;;;;;;13.99;100.00;101328.19;5009033;28;20050;-74
2023/06/08 04:04:31;;;;;;;24.48;10.10;;;;;;;13.97;100.00;101324.22;5010128;28;20052;-71
2023/06/08 04:07:00;;;;;;;31.88;11.02;;;;;;;13.90;100.00;101319.56;5009314;28;20057;-69
2023/06/08 04:09:28;;;;;;;24.58;9.80;;;;;;;13.92;100.00;101316.34;5006635;28;20480;-72
2023/06/08 04:11:56;;;;;;;22.98;9.63;;;;;;;13.91;100.00;101329.53;5007496;28;20088;-72
2023/06/08 04:14:22;;;;;;;23.70;9.60;;;;;;;13.89;100.00;101328.38;5015258;28;20045;-72
2023/06/08 04:16:49;;;;;;;29.38;11.70;;;;;;;13.89;100.00;101325.56;5005405;28;20049;-74
2023/06/08 04:19:16;;;;;;;26.67;9.23;;;;;;;13.88;100.00;101326.81;5018020;28;20461;-71
2023/06/08 04:21:43;;;;;;;25.52;11.25;;;;;;;13.82;100.00;101322.91;5013536;28;20048;-73
2023/06/08 04:24:16;;;;;;;28.27;9.93;;;;;;;13.83;100.00;101325.28;5009747;28;20132;-70
2023/06/08 04:26:43;;;;;;;23.42;9.60;;;;;;;13.76;100.00;101316.22;5015790;28;20547;-72
2023/06/08 04:29:10;;;;;;;22.27;10.30;;;;;;;13.77;100.00;101313.00;5016772;28;20555;-71
2023/06/08 04:31:38;;;;;;;25.17;10.65;;;;;;;13.82;100.00;101323.72;5013656;28;20054;-70
2023/06/08 04:34:05;;;;;;;19.90;10.07;;;;;;;13.79;100.00;101316.16;5006708;28;20058;-72
2023/06/08 04:36:31;;;;;;;28.83;11.55;;;;;;;13.84;100.00;101320.50;5013675;28;20103;-74
2023/06/08 04:38:58;;;;;;;27.55;10.30;;;;;;;13.90;100.00;101325.16;5024062;28;20049;-75
2023/06/08 04:41:29;;;;;;;32.03;12.00;;;;;;;13.94;100.00;101334.25;5015468;28;20096;-71
2023/06/08 04:44:01;;;;;;;27.38;11.82;;;;;;;13.97;100.00;101327.03;5013964;28;20057;-74
2023/06/08 04:46:30;;;;;;;25.73;10.35;;;;;;;14.00;100.00;101329.78;5007898;28;20129;-75
2023/06/08 04:48:57;;;;;;;21.85;9.07;;;;;;;13.98;100.00;101326.59;5013330;28;20149;-72
2023/06/08 04:51:24;;;;;;;25.33;8.93;;;;;;;14.02;100.00;101332.94;5013966;28;20046;-72
2023/06/08 04:53:51;;;;;;;24.50;9.73;;;;;;;14.05;100.00;101331.28;5007818;28;20058;-73
2023/06/08 04:56:18;;;;;;;23.70;9.85;;;;;;;14.04;100.00;101332.53;5006333;28;20527;-71
2023/06/08 04:58:46;;;;;;;24.77;10.57;;;;;;;14.08;100.00;101333.25;5005694;28;20046;-75
2023/06/08 05:01:13;;;;;;;21.15;9.25;;;;;;;14.09;100.00;101326.41;5005658;28;20163;-72
2023/06/08 05:03:40;;;;;;;27.65;10.32;;;;;;;14.12;100.00;101326.38;5004242;28;20100;-72
2023/06/08 05:06:06;;;;;;;24.02;10.32;;;;;;;14.19;100.00;101328.22;5005320;28;20049;-72
2023/06/08 05:08:33;;;;;;;26.13;9.88;;;;;;;14.20;100.00;101327.00;5014171;28;20069;-72
2023/06/08 05:10:59;;;;;;;25.77;11.27;;;;;;;14.26;100.00;101330.91;5010512;28;20132;-71
2023/06/08 05:13:26;;;;;;;24.42;9.68;;;;;;;14.25;100.00;101330.09;5007578;28;20476;-72
2023/06/08 05:15:54;;;;;;;23.38;9.25;;;;;;;14.29;100.00;101330.84;5006127;28;20153;-75
2023/06/08 05:18:20;;;;;;;24.77;10.52;;;;;;;14.33;100.00;101336.34;5005201;28;20050;-74
2023/06/08 05:20:47;;;;;;;23.90;9.15;;;;;;;14.36;100.00;101341.09;5006257;28;20092;-71
2023/06/08 05:23:14;;;;;;;26.00;10.32;;;;;;;14.42;100.00;101333.81;5014401;28;20046;-71
2023/06/08 05:25:41;;;;;;;24.23;10.10;;;;;;;14.43;100.00;101338.19;5002654;28;20088;-74
2023/06/08 05:28:11;;;;;;;25.92;11.35;;;;;;;14.40;100.00;101339.81;5003318;28;20050;-70
2023/06/08 05:30:37;;;;;;;25.70;9.95;;;;;;;14.41;100.00;101335.78;5007040;28;20456;-72
2023/06/08 05:33:04;;;;;;;28.25;10.90;;;;;;;14.41;100.00;101341.38;5012453;28;20053;-73
2023/06/08 05:35:31;;;;;;;24.60;10.52;;;;;;;14.46;100.00;101337.34;5011528;28;20125;-71
2023/06/08 05:37:57;;;;;;;26.83;10.07;;;;;;;14.46;100.00;101337.34;5007030;28;20084;-74
2023/06/08 05:40:24;;;;;;;26.13;10.82;;;;;;;14.46;100.00;101332.53;5005783;28;20058;-72
2023/06/08 05:42:51;;;;;;;25.50;12.65;;;;;;;14.49;100.00;101328.09;5007110;28;20227;-72
2023/06/08 05:45:22;;;;;;;28.00;11.10;;;;;;;14.50;100.00;101330.47;5007233;28;20050;-73
2023/06/08 05:47:48;;;;;;;24.67;10.82;;;;;;;14.51;100.00;101325.63;5006231;28;20500;-72
2023/06/08 05:50:15;;;;;;;22.42;9.57;;;;;;;14.55;100.00;101334.78;5006239;28;20559;-72
2023/06/08 05:52:42;;;;;;;26.85;11.20;;;;;;;14.63;100.00;101327.81;5010151;28;20139;-72
2023/06/08 05:55:10;;;;;;;25.10;9.95;;;;;;;14.65;100.00;101326.16;5013821;28;20081;-72
2023/06/08 05:57:38;;;;;;;25.20;10.75;;;;;;;14.67;100.00;101331.31;5036748;28;20103;-72
2023/06/08 06:00:09;;;;;;;21.98;10.25;;;;;;;14.68;100.00;101322.50;5014354;28;20081;-71
2023/06/08 06:02:36;;;;;;;25.77;11.38;;;;;;;14.76;100.00;101331.53;5014605;28;20054;-72
2023/06/08 06:05:04;;;;;;;23.95;11.23;;;;;;;14.79;100.00;101330.69;5019551;28;20136;-67
2023/06/08 06:07:31;;;;;;;23.35;11.23;;;;;;;14.86;100.00;101336.13;5022426;28;20111;-70
2023/06/08 06:09:57;;;;;;;22.35;10.43;;;;;;;14.86;100.00;101334.09;5016409;28;20045;-70
2023/06/08 06:12:24;;;;;;;25.80;9.82;;;;;;;14.85;100.00;101340.13;5026634;28;20111;-70
2023/06/08 06:14:52;;;;;;;28.23;11.25;;;;;;;14.87;100.00;101338.50;5018183;28;20478;-68
2023/06/08 06:17:19;;;;;;;18.13;9.65;;;;;;;14.92;100.00;101351.16;5014200;28;20459;-70
2023/06/08 06:19:45;;;;;;;26.45;10.73;;;;;;;14.94;100.00;101334.75;5017890;28;20180;-66
2023/06/08 06:22:12;;;;;;;22.50;9.68;;;;;;;15.00;100.00;101328.19;5023654;28;20065;-70
2023/06/08 06:24:38;;;;;;;25.70;10.45;;;;;;;15.09;100.00;101333.19;5008217;28;20092;-69
2023/06/08 06:27:06;;;;;;;29.45;11.13;;;;;;;15.16;100.00;101333.06;5017922;28;20046;-70
2023/06/08 06:29:33;;;;;;;23.88;10.68;;;;;;;15.21;100.00;101324.13;5011057;28;20054;-70
2023/06/08 06:32:00;;;;;;;22.95;10.38;;;;;;;15.30;100.00;101332.75;5012095;28;20100;-69
2023/06/08 06:34:27;;;;;;;26.25;10.65;;;;;;;15.38;100.00;101333.38;5014073;28;20053;-70
2023/06/08 06:36:53;;;;;;;27.65;11.32;;;;;;;15.44;100.00;101329.63;5012931;28;20295;-69
2023/06/08 06:39:20;;;;;;;25.70;10.60;;;;;;;15.51;100.00;101323.06;5013182;28;20064;-70
2023/06/08 06:41:46;;;;;;;27.10;10.93;;;;;;;15.57;100.00;101326.94;5015485;28;20103;-71
2023/06/08 06:44:13;;;;;;;25.27;10.57;;;;;;;15.68;100.00;101330.25;5011125;28;20145;-70
2023/06/08 06:46:40;;;;;;;21.90;10.00;;;;;;;15.78;100.00;101332.81;5007396;28;20120;-70
2023/06/08 06:49:07;;;;;;;26.58;11.18;;;;;;;15.89;100.00;101347.34;5027910;28;20056;-70
2023/06/08 06:51:36;;;;;;;27.25;10.73;;;;;;;15.90;100.00;101343.28;5008394;28;20050;-71
2023/06/08 06:54:02;;;;;;;23.58;10.80;;;;;;;16.02;100.00;101350.22;5013451;28;20124;-70
2023/06/08 06:56:30;;;;;;;25.55;10.43;;;;;;;16.15;100.00;101351.88;5017327;28;20099;-70
2023/06/08 06:58:57;;;;;;;24.58;10.88;;;;;;;16.23;100.00;101355.25;5012972;28;20108;-74
2023/06/08 07:01:24;;;;;;;22.88;10.25;;;;;;;16.24;100.00;101351.25;5011698;28;20165;-69
2023/06/08 07:03:51;;;;;;;24.15;10.88;;;;;;;16.33;100.00;101359.84;5005999;28;20823;-70
2023/06/08 07:06:22;;;;;;;25.08;10.00;;;;;;;16.45;100.00;101356.31;5004325;28;20043;-70
2023/06/08 07:08:49;;;;;;;23.23;10.35;;;;;;;16.57;100.00;101352.75;5001415;28;20061;-71
2023/06/08 07:11:16;;;;;;;25.42;10.40;;;;;;;16.66;100.00;101350.09;5005383;28;20050;-69
2023/06/08 07:13:42;;;;;;;26.40;10.52;;;;;;;16.73;100.00;101353.50;5012143;28;20096;-72
2023/06/08 07:16:09;;;;;;;25.23;11.45;;;;;;;16.76;100.00;101349.81;5011755;28;20069;-69
2023/06/08 07:18:37;;;;;;;24.25;10.77;;;;;;;16.84;100.00;101353.19;5008613;28;20093;-72
2023/06/08 07:21:03;;;;;;;23.13;10.55;;;;;;;16.89;100.00;101347.03;5015259;28;20053;-69
2023/06/08 07:23:30;;;;;;;21.98;10.80;;;;;;;16.97;100.00;101352.00;5008031;28;21563;-69
2023/06/08 07:26:17;;;;;;;26.20;10.82;;;;;;;17.01;100.00;101358.28;5012324;28;20428;-69
2023/06/08 07:28:56;;;;;;;25.90;11.60;;;;;;;17.06;100.00;101348.53;5007366;28;20070;-71
2023/06/08 07:31:23;;;;;;;25.77;10.77;;;;;;;17.07;100.00;101352.91;5008151;28;20061;-69
2023/06/08 07:33:50;;;;;;;24.73;11.38;;;;;;;17.07;100.00;101355.72;5008858;28;20045;-74
2023/06/08 07:36:17;;;;;;;20.23;9.88;;;;;;;17.14;100.00;101356.31;5002676;28;20054;-71
2023/06/08 07:38:44;;;;;;;28.45;10.70;;;;;;;17.15;100.00;101355.09;5014201;28;20045;-70
2023/06/08 07:41:11;;;;;;;27.85;11.60;;;;;;;17.19;100.00;101355.75;5021358;28;20046;-72
2023/06/08 07:43:38;;;;;;;24.38;10.45;;;;;;;17.17;100.00;101352.63;5013776;28;20076;-69
2023/06/08 07:46:04;;;;;;;23.98;10.75;;;;;;;17.24;100.00;101352.41;5008995;28;20214;-71
2023/06/08 07:48:30;;;;;;;27.85;11.07;;;;;;;17.28;100.00;101349.47;5007609;28;20092;-71
2023/06/08 07:50:57;;;;;;;25.88;12.00;;;;;;;17.38;100.00;101361.63;5013935;28;20477;-71
2023/06/08 07:53:24;;;;;;;22.33;10.85;;;;;;;17.43;100.00;101342.94;5014347;28;20049;-71
2023/06/08 07:55:50;;;;;;;24.52;10.90;;;;;;;17.49;100.00;101350.84;5004900;28;20086;-72
2023/06/08 07:58:17;;;;;;;23.10;9.77;;;;;;;17.53;100.00;101338.25;5008188;28;20053;-71
2023/06/08 08:00:43;;;;;;;23.85;10.07;;;;;;;17.59;100.00;101349.72;5005239;28;20152;-73
2023/06/08 08:03:10;;;;;;;23.70;10.25;;;;;;;17.62;100.00;101343.19;5016022;28;20050;-71
2023/06/08 08:05:37;;;;;;;24.13;11.00;;;;;;;17.67;100.00;101334.19;5014521;28;20128;-71
2023/06/08 08:08:03;;;;;;;21.35;10.82;;;;;;;17.66;100.00;101332.59;5012089;28;20467;-71
2023/06/08 08:10:30;;;;;;;25.77;12.57;;;;;;;17.74;100.00;101343.16;5008818;28;20085;-72
2023/06/08 08:12:56;;;;;;;26.85;11.98;;;;;;;17.77;100.00;101335.84;5008658;28;20104;-72
2023/06/08 08:15:23;;;;;;;25.40;11.07;;;;;;;17.86;100.00;101339.56;5006902;28;20457;-71
2023/06/08 08:17:49;;;;;;;27.13;11.90;;;;;;;18.00;100.00;101344.75;5012097;28;20507;-69
2023/06/08 08:20:17;;;;;;;25.20;12.35;;;;;;;18.10;100.00;101337.16;5002239;28;20520;-72
2023/06/08 08:22:43;;;;;;;24.73;13.25;;;;;;;18.21;100.00;101335.56;4998683;28;20084;-72
2023/06/08 08:25:10;;;;;;;24.80;10.98;;;;;;;18.30;100.00;101326.41;5007314;28;20132;-70
2023/06/08 08:27:36;;;;;;;28.85;12.63;;;;;;;18.46;100.00;101335.47;5007152;28;20077;-69
2023/06/08 08:30:03;;;;;;;23.60;11.02;;;;;;;18.58;100.00;101322.56;5007381;28;20108;-70
2023/06/08 08:32:31;;;;;;;25.70;11.80;;;;;;;18.72;100.00;101319.22;5009100;28;20544;-69
2023/06/08 08:34:57;;;;;;;24.85;11.55;;;;;;;18.78;100.00;101323.84;5005019;28;20080;-70
2023/06/08 08:37:24;;;;;;;24.98;11.45;;;;;;;18.93;100.00;101324.88;5003259;28;20093;-70
2023/06/08 08:39:52;;;;;;;24.67;10.05;;;;;;;19.11;100.00;101324.19;5006895;28;20058;-68
2023/06/08 08:42:22;;;;;;;20.73;10.90;;;;;;;19.26;100.00;101314.72;5005167;28;20104;-70
2023/06/08 08:44:53;;;;;;;28.02;10.93;;;;;;;19.40;100.00;101321.81;5011756;28;20049;-69
2023/06/08 08:47:23;;;;;;;25.10;10.80;;;;;;;19.51;100.00;101310.94;5012007;28;20411;-72
2023/06/08 08:50:04;;;;;;;26.40;11.40;;;;;;;19.69;100.00;101308.94;5006388;28;20343;-73
2023/06/08 08:52:37;;;;;;;23.50;10.90;;;;;;;19.79;100.00;101306.94;5002731;28;20129;-72
2023/06/08 08:55:04;;;;;;;25.02;12.75;;;;;;;19.88;100.00;101308.97;5009443;28;20152;-71
2023/06/08 08:57:31;;;;;;;28.95;11.35;;;;;;;20.00;100.00;101317.31;5007529;28;20076;-70
2023/06/08 08:59:58;;;;;;;24.92;11.85;;;;;;;20.19;100.00;101312.47;5004968;28;20073;-70
2023/06/08 09:02:26;;;;;;;24.70;11.60;;;;;;;20.30;100.00;101305.13;5003760;28;20107;-67
2023/06/08 09:04:54;;;;;;;23.48;11.02;;;;;;;20.43;100.00;101308.59;5007756;28;20050;-72
2023/06/08 09:07:21;;;;;;;24.60;11.07;;;;;;;20.51;100.00;101312.66;5011429;28;20136;-69
2023/06/08 09:10:21;;;;;;;26.98;11.68;;;;;;;20.61;100.00;101311.38;5014486;28;20140;-71
2023/06/08 09:12:49;;;;;;;18.48;10.32;;;;;;;20.67;100.00;101309.50;5002279;28;20050;-70
2023/06/08 09:15:31;;;;;;;26.42;10.75;;;;;;;20.69;100.00;101309.03;5008643;28;20081;-72
2023/06/08 09:18:02;;;;;;;20.63;9.35;;;;;;;20.78;100.00;101304.13;5000923;28;20050;-70
2023/06/08 09:20:34;;;;;;;20.10;9.70;;;;;;;20.86;100.00;101294.06;5009013;28;20046;-72
2023/06/08 09:23:16;;;;;;;18.52;10.05;;;;;;;20.96;100.00;101289.97;5009004;28;20702;-69
2023/06/08 09:25:46;;;;;;;22.83;10.32;;;;;;;21.09;100.00;101293.41;5009583;28;20049;-70
2023/06/08 09:28:28;;;;;;;19.80;9.95;;;;;;;21.22;100.00;101291.16;5011488;28;20567;-70
2023/06/08 09:31:00;;;;;;;21.45;10.10;;;;;;;21.35;100.00;101297.38;5006478;28;20060;-71
2023/06/08 09:33:29;;;;;;;23.73;10.55;;;;;;;21.39;100.00;101292.34;5005700;28;20054;-71
2023/06/08 09:35:56;;;;;;;18.33;9.80;;;;;;;21.39;100.00;101288.72;5007278;28;20065;-70
2023/06/08 09:38:25;;;;;;;22.42;9.98;;;;;;;21.50;100.00;101284.09;5004149;28;20112;-70
2023/06/08 09:40:51;;;;;;;22.75;9.38;;;;;;;21.67;100.00;101282.47;5006399;28;20057;-71
2023/06/08 09:43:33;;;;;;;21.10;10.00;;;;;;;21.80;100.00;101279.38;5008726;28;20554;-69
2023/06/08 09:46:00;;;;;;;20.20;9.80;;;;;;;21.92;100.00;101278.38;4998896;28;20073;-73
2023/06/08 09:48:26;;;;;;;24.13;10.38;;;;;;;21.99;100.00;101270.31;5015778;28;20535;-66
2023/06/08 09:51:02;;;;;;;19.70;9.65;;;;;;;22.10;100.00;101273.38;5005617;28;20108;-68
2023/06/08 09:53:33;;;;;;;20.77;9.48;;;;;;;22.17;100.00;101275.03;5000437;28;20095;-72
2023/06/08 09:56:03;;;;;;;22.15;9.85;;;;;;;22.26;100.00;101263.63;5014936;28;20543;-68
2023/06/08 09:58:35;;;;;;;25.63;9.95;;;;;;;22.36;100.00;101270.81;5012521;28;20515;-66
2023/06/08 10:01:05;;;;;;;29.13;11.15;;;;;;;22.48;100.00;101269.75;5004286;28;20137;-68
2023/06/08 10:03:39;;;;;;;20.08;10.25;;;;;;;22.62;100.00;101274.66;5000378;28;20107;-70
2023/06/08 10:06:07;;;;;;;20.52;10.48;;;;;;;22.70;100.00;101275.84;5012559;28;20058;-72
2023/06/08 10:08:38;;;;;;;24.98;9.93;;;;;;;22.76;100.00;101261.75;5006750;28;20141;-71
2023/06/08 10:11:07;;;;;;;22.00;10.15;;;;;;;22.91;100.00;101263.31;5006639;28;20124;-72
2023/06/08 10:13:34;;;;;;;19.80;9.45;;;;;;;22.99;100.00;101273.03;5007948;28;20099;-69
2023/06/08 10:16:02;;;;;;;19.05;9.82;;;;;;;22.93;100.00;101259.97;5013488;28;20053;-72
2023/06/08 10:18:33;;;;;;;20.95;12.00;;;;;;;22.99;100.00;101263.72;5015328;28;20052;-70
2023/06/08 10:21:03;;;;;;;20.20;10.43;;;;;;;23.12;100.00;101255.69;5003433;28;20117;-70
2023/06/08 10:23:34;;;;;;;20.17;10.45;;;;;;;23.20;100.00;101256.84;5008093;28;20045;-70
2023/06/08 10:26:04;;;;;;;21.13;9.73;;;;;;;23.31;100.00;101257.81;5004646;28;20053;-72
2023/06/08 10:28:30;;;;;;;21.33;9.55;;;;;;;23.43;100.00;101247.41;5012374;28;20528;-70
2023/06/08 10:30:57;;;;;;;22.00;10.73;;;;;;;23.59;100.00;101255.38;5002397;28;20519;-70
2023/06/08 10:33:25;;;;;;;21.92;9.00;;;;;;;23.77;100.00;101249.44;5008117;28;20519;-69
2023/06/08 10:36:09;;;;;;;20.40;9.40;;;;;;;23.91;100.00;101246.53;5011406;28;20088;-69
2023/06/08 10:38:56;;;;;;;18.35;8.82;;;;;;;24.03;100.00;101245.38;5012126;28;20460;-67
2023/06/08 10:41:41;;;;;;;18.17;9.18;;;;;;;24.17;100.00;101235.22;5012082;28;20091;-69
2023/06/08 10:44:27;;;;;;;18.92;8.75;;;;;;;24.34;100.00;101241.91;5005442;28;20133;-67
2023/06/08 10:46:59;;;;;;;18.40;9.73;;;;;;;24.33;100.00;101234.66;5009107;28;20050;-73
2023/06/08 10:49:34;;;;;;;17.90;8.32;;;;;;;24.37;100.00;101243.75;5016924;28;20791;-71
2023/06/08 10:52:02;;;;;;;18.67;9.02;;;;;;;24.46;100.00;101235.03;5012834;28;20046;-69
2023/06/08 10:54:30;;;;;;;19.23;9.18;;;;;;;24.59;100.00;101234.63;5005774;28;20074;-72
2023/06/08 10:56:59;;;;;;;19.63;9.35;;;;;;;24.62;100.00;101230.78;5012684;28;20591;-71
2023/06/08 10:59:41;;;;;;;17.20;8.63;;;;;;;24.60;100.00;101230.53;4999644;28;20132;-71
2023/06/08 11:02:08;;;;;;;17.67;9.15;;;;;;;24.77;100.00;101229.38;5009579;28;20587;-69
2023/06/08 11:04:35;;;;;;;15.93;8.98;;;;;;;24.95;100.00;101226.22;5014145;28;20420;-68
2023/06/08 11:07:23;;;;;;;17.65;8.60;;;;;;;25.18;100.00;101224.31;5011149;28;20061;-69
2023/06/08 11:09:50;;;;;;;16.55;8.27;;;;;;;25.34;100.00;101223.66;5022477;28;20037;-70
2023/06/08 11:12:17;;;;;;;18.17;9.80;;;;;;;25.36;100.00;101221.84;5008396;28;20116;-70